sensor_id;sensor_type;location;lat;lon;timestamp;P1;durP1;ratioP1;P2;durP2;ratioP2
72301;SDS011;60235;52.234;5.186;2023-02-25T00:01:53;9.52;;;1.35;;
72301;SDS011;60235;52.234;5.186;2023-02-25T00:04:20;11.13;;;1.55;;
72301;SDS011;60235;52.234;5.186;2023-02-25T00:06:45;10.05;;;1.45;;
72301;SDS011;60235;52.234;5.186;2023-02-25T00:09:11;7.43;;;1.42;;
72301;SDS011;60235;52.234;5.186;2023-02-25T00:11:38;8.35;;;1.48;;
72301;SDS011;60235;52.234;5.186;2023-02-25T00:14:04;7.68;;;1.38;;
72301;SDS011;60235;52.234;5.186;2023-02-25T00:16:30;6.38;;;1.17;;
72301;SDS011;60235;52.234;5.186;2023-02-25T00:18:57;6.95;;;1.13;;
72301;SDS011;60235;52.234;5.186;2023-02-25T00:21:23;5.75;;;1.00;;
72301;SDS011;60235;52.234;5.186;2023-02-25T00:23:49;4.35;;;0.93;;
72301;SDS011;60235;52.234;5.186;2023-02-25T00:26:17;4.88;;;0.60;;
72301;SDS011;60235;52.234;5.186;2023-02-25T00:28:43;3.90;;;0.60;;
72301;SDS011;60235;52.234;5.186;2023-02-25T00:31:10;8.05;;;0.98;;
72301;SDS011;60235;52.234;5.186;2023-02-25T00:33:36;6.95;;;0.85;;
72301;SDS011;60235;52.234;5.186;2023-02-25T00:36:06;5.80;;;0.98;;
72301;SDS011;60235;52.234;5.186;2023-02-25T00:38:32;9.60;;;1.08;;
72301;SDS011;60235;52.234;5.186;2023-02-25T00:41:03;10.85;;;1.17;;
72301;SDS011;60235;52.234;5.186;2023-02-25T00:43:32;12.27;;;1.40;;
72301;SDS011;60235;52.234;5.186;2023-02-25T00:45:58;9.95;;;1.35;;
72301;SDS011;60235;52.234;5.186;2023-02-25T00:48:24;3.33;;;0.80;;
72301;SDS011;60235;52.234;5.186;2023-02-25T00:50:50;10.90;;;1.02;;
72301;SDS011;60235;52.234;5.186;2023-02-25T00:53:16;8.75;;;1.10;;
72301;SDS011;60235;52.234;5.186;2023-02-25T00:55:42;11.82;;;1.58;;
72301;SDS011;60235;52.234;5.186;2023-02-25T00:58:08;8.90;;;1.95;;
72301;SDS011;60235;52.234;5.186;2023-02-25T01:00:34;9.63;;;1.20;;
72301;SDS011;60235;52.234;5.186;2023-02-25T01:03:00;9.55;;;1.65;;
72301;SDS011;60235;52.234;5.186;2023-02-25T01:05:26;12.63;;;1.27;;
72301;SDS011;60235;52.234;5.186;2023-02-25T01:07:52;11.85;;;1.63;;
72301;SDS011;60235;52.234;5.186;2023-02-25T01:10:19;13.32;;;2.05;;
72301;SDS011;60235;52.234;5.186;2023-02-25T01:12:45;15.75;;;1.60;;
72301;SDS011;60235;52.234;5.186;2023-02-25T01:15:11;13.00;;;2.35;;
72301;SDS011;60235;52.234;5.186;2023-02-25T01:17:37;11.18;;;1.73;;
72301;SDS011;60235;52.234;5.186;2023-02-25T01:20:04;16.17;;;1.85;;
72301;SDS011;60235;52.234;5.186;2023-02-25T01:22:35;16.80;;;1.88;;
72301;SDS011;60235;52.234;5.186;2023-02-25T01:25:02;16.55;;;1.85;;
72301;SDS011;60235;52.234;5.186;2023-02-25T01:27:28;18.25;;;2.20;;
72301;SDS011;60235;52.234;5.186;2023-02-25T01:29:54;11.73;;;1.50;;
72301;SDS011;60235;52.234;5.186;2023-02-25T01:32:20;17.02;;;1.77;;
72301;SDS011;60235;52.234;5.186;2023-02-25T01:34:47;17.30;;;1.90;;
72301;SDS011;60235;52.234;5.186;2023-02-25T01:37:12;13.68;;;2.17;;
72301;SDS011;60235;52.234;5.186;2023-02-25T01:39:39;12.75;;;1.70;;
72301;SDS011;60235;52.234;5.186;2023-02-25T01:42:10;12.50;;;1.42;;
72301;SDS011;60235;52.234;5.186;2023-02-25T01:45:12;12.60;;;1.60;;
72301;SDS011;60235;52.234;5.186;2023-02-25T01:47:24;15.68;;;1.60;;
72301;SDS011;60235;52.234;5.186;2023-02-25T01:49:50;15.48;;;1.58;;
72301;SDS011;60235;52.234;5.186;2023-02-25T01:52:17;10.20;;;1.50;;
72301;SDS011;60235;52.234;5.186;2023-02-25T01:54:46;11.90;;;2.10;;
72301;SDS011;60235;52.234;5.186;2023-02-25T01:57:14;13.57;;;2.25;;
72301;SDS011;60235;52.234;5.186;2023-02-25T01:59:40;19.55;;;2.25;;
72301;SDS011;60235;52.234;5.186;2023-02-25T02:02:08;9.45;;;1.67;;
72301;SDS011;60235;52.234;5.186;2023-02-25T02:04:34;17.08;;;2.45;;
72301;SDS011;60235;52.234;5.186;2023-02-25T02:07:00;12.80;;;1.83;;
72301;SDS011;60235;52.234;5.186;2023-02-25T02:09:28;19.35;;;2.72;;
72301;SDS011;60235;52.234;5.186;2023-02-25T02:11:58;16.58;;;1.85;;
72301;SDS011;60235;52.234;5.186;2023-02-25T02:14:26;13.82;;;2.33;;
72301;SDS011;60235;52.234;5.186;2023-02-25T02:20:20;14.98;;;2.08;;
72301;SDS011;60235;52.234;5.186;2023-02-25T02:32:46;16.33;;;2.00;;
72301;SDS011;60235;52.234;5.186;2023-02-25T02:41:05;13.77;;;1.77;;
72301;SDS011;60235;52.234;5.186;2023-02-25T02:46:26;15.18;;;1.95;;
72301;SDS011;60235;52.234;5.186;2023-02-25T02:51:24;16.45;;;2.60;;
72301;SDS011;60235;52.234;5.186;2023-02-25T02:53:53;14.07;;;2.50;;
72301;SDS011;60235;52.234;5.186;2023-02-25T02:56:20;15.07;;;1.67;;
72301;SDS011;60235;52.234;5.186;2023-02-25T02:58:47;13.57;;;1.83;;
72301;SDS011;60235;52.234;5.186;2023-02-25T03:01:18;10.30;;;1.67;;
72301;SDS011;60235;52.234;5.186;2023-02-25T03:03:46;16.05;;;1.77;;
72301;SDS011;60235;52.234;5.186;2023-02-25T03:06:15;12.52;;;2.10;;
72301;SDS011;60235;52.234;5.186;2023-02-25T03:08:43;15.18;;;2.08;;
72301;SDS011;60235;52.234;5.186;2023-02-25T03:11:11;14.70;;;2.10;;
72301;SDS011;60235;52.234;5.186;2023-02-25T03:13:37;15.73;;;1.98;;
72301;SDS011;60235;52.234;5.186;2023-02-25T03:16:04;16.48;;;2.00;;
72301;SDS011;60235;52.234;5.186;2023-02-25T03:18:56;14.35;;;2.28;;
72301;SDS011;60235;52.234;5.186;2023-02-25T03:21:19;20.88;;;2.88;;
72301;SDS011;60235;52.234;5.186;2023-02-25T03:23:46;13.73;;;1.98;;
72301;SDS011;60235;52.234;5.186;2023-02-25T03:26:22;11.38;;;1.75;;
72301;SDS011;60235;52.234;5.186;2023-02-25T03:28:51;15.85;;;2.22;;
72301;SDS011;60235;52.234;5.186;2023-02-25T03:36:18;16.88;;;1.70;;
72301;SDS011;60235;52.234;5.186;2023-02-25T03:38:46;9.43;;;2.20;;
72301;SDS011;60235;52.234;5.186;2023-02-25T03:41:15;22.85;;;3.00;;
72301;SDS011;60235;52.234;5.186;2023-02-25T03:43:44;20.13;;;2.00;;
72301;SDS011;60235;52.234;5.186;2023-02-25T03:46:11;19.88;;;1.85;;
72301;SDS011;60235;52.234;5.186;2023-02-25T03:48:37;12.02;;;1.92;;
72301;SDS011;60235;52.234;5.186;2023-02-25T03:51:04;16.02;;;2.33;;
72301;SDS011;60235;52.234;5.186;2023-02-25T03:53:31;11.43;;;1.98;;
72301;SDS011;60235;52.234;5.186;2023-02-25T03:55:59;15.73;;;1.80;;
72301;SDS011;60235;52.234;5.186;2023-02-25T03:58:29;17.25;;;2.47;;
72301;SDS011;60235;52.234;5.186;2023-02-25T04:00:55;13.25;;;1.80;;
72301;SDS011;60235;52.234;5.186;2023-02-25T04:03:22;12.27;;;1.65;;
72301;SDS011;60235;52.234;5.186;2023-02-25T04:05:48;12.50;;;1.63;;
72301;SDS011;60235;52.234;5.186;2023-02-25T04:08:14;15.23;;;2.08;;
72301;SDS011;60235;52.234;5.186;2023-02-25T04:10:40;14.38;;;1.65;;
72301;SDS011;60235;52.234;5.186;2023-02-25T04:15:35;13.48;;;1.75;;
72301;SDS011;60235;52.234;5.186;2023-02-25T04:18:01;10.50;;;1.60;;
72301;SDS011;60235;52.234;5.186;2023-02-25T04:20:28;13.07;;;2.38;;
72301;SDS011;60235;52.234;5.186;2023-02-25T04:22:54;18.80;;;1.52;;
72301;SDS011;60235;52.234;5.186;2023-02-25T04:25:20;11.13;;;1.58;;
72301;SDS011;60235;52.234;5.186;2023-02-25T04:27:46;17.05;;;1.75;;
72301;SDS011;60235;52.234;5.186;2023-02-25T04:30:12;15.45;;;2.00;;
72301;SDS011;60235;52.234;5.186;2023-02-25T04:32:38;10.65;;;1.80;;
72301;SDS011;60235;52.234;5.186;2023-02-25T04:35:05;14.00;;;1.98;;
72301;SDS011;60235;52.234;5.186;2023-02-25T04:37:33;11.98;;;1.33;;
72301;SDS011;60235;52.234;5.186;2023-02-25T04:39:59;14.95;;;1.48;;
72301;SDS011;60235;52.234;5.186;2023-02-25T04:42:26;21.23;;;2.33;;
72301;SDS011;60235;52.234;5.186;2023-02-25T04:44:52;13.65;;;2.08;;
72301;SDS011;60235;52.234;5.186;2023-02-25T04:47:18;7.55;;;1.80;;
72301;SDS011;60235;52.234;5.186;2023-02-25T04:49:44;13.85;;;2.42;;
72301;SDS011;60235;52.234;5.186;2023-02-25T04:52:13;11.90;;;1.33;;
72301;SDS011;60235;52.234;5.186;2023-02-25T04:54:39;13.75;;;1.60;;
72301;SDS011;60235;52.234;5.186;2023-02-25T04:57:05;9.98;;;1.83;;
72301;SDS011;60235;52.234;5.186;2023-02-25T04:59:31;10.05;;;1.48;;
72301;SDS011;60235;52.234;5.186;2023-02-25T05:01:57;11.63;;;1.70;;
72301;SDS011;60235;52.234;5.186;2023-02-25T05:04:24;10.77;;;1.45;;
72301;SDS011;60235;52.234;5.186;2023-02-25T05:06:50;15.07;;;1.75;;
72301;SDS011;60235;52.234;5.186;2023-02-25T05:09:16;13.57;;;1.65;;
72301;SDS011;60235;52.234;5.186;2023-02-25T05:11:42;12.25;;;1.85;;
72301;SDS011;60235;52.234;5.186;2023-02-25T05:14:08;11.93;;;1.52;;
72301;SDS011;60235;52.234;5.186;2023-02-25T05:16:34;12.30;;;1.48;;
72301;SDS011;60235;52.234;5.186;2023-02-25T05:19:00;15.10;;;1.95;;
72301;SDS011;60235;52.234;5.186;2023-02-25T05:21:26;11.68;;;1.60;;
72301;SDS011;60235;52.234;5.186;2023-02-25T05:23:53;13.00;;;1.77;;
72301;SDS011;60235;52.234;5.186;2023-02-25T05:26:21;15.85;;;1.90;;
72301;SDS011;60235;52.234;5.186;2023-02-25T05:28:51;15.73;;;1.83;;
72301;SDS011;60235;52.234;5.186;2023-02-25T05:31:17;10.80;;;1.40;;
72301;SDS011;60235;52.234;5.186;2023-02-25T05:33:44;13.80;;;2.45;;
72301;SDS011;60235;52.234;5.186;2023-02-25T05:36:11;16.67;;;2.30;;
72301;SDS011;60235;52.234;5.186;2023-02-25T05:38:38;16.35;;;2.03;;
72301;SDS011;60235;52.234;5.186;2023-02-25T05:41:04;15.00;;;1.67;;
72301;SDS011;60235;52.234;5.186;2023-02-25T05:43:31;21.88;;;2.38;;
72301;SDS011;60235;52.234;5.186;2023-02-25T05:45:57;9.98;;;1.67;;
72301;SDS011;60235;52.234;5.186;2023-02-25T05:48:25;17.10;;;2.45;;
72301;SDS011;60235;52.234;5.186;2023-02-25T05:50:57;12.73;;;1.55;;
72301;SDS011;60235;52.234;5.186;2023-02-25T05:53:24;12.18;;;1.85;;
72301;SDS011;60235;52.234;5.186;2023-02-25T05:55:50;9.43;;;1.58;;
72301;SDS011;60235;52.234;5.186;2023-02-25T05:58:16;14.10;;;2.17;;
72301;SDS011;60235;52.234;5.186;2023-02-25T06:00:42;16.65;;;2.10;;
72301;SDS011;60235;52.234;5.186;2023-02-25T06:03:08;15.65;;;2.13;;
72301;SDS011;60235;52.234;5.186;2023-02-25T06:05:37;14.55;;;2.13;;
72301;SDS011;60235;52.234;5.186;2023-02-25T06:08:04;14.15;;;2.75;;
72301;SDS011;60235;52.234;5.186;2023-02-25T06:10:30;11.93;;;1.75;;
72301;SDS011;60235;52.234;5.186;2023-02-25T06:13:02;17.10;;;2.03;;
72301;SDS011;60235;52.234;5.186;2023-02-25T06:15:28;13.38;;;2.80;;
72301;SDS011;60235;52.234;5.186;2023-02-25T06:17:54;11.48;;;1.48;;
72301;SDS011;60235;52.234;5.186;2023-02-25T06:20:20;17.60;;;2.30;;
72301;SDS011;60235;52.234;5.186;2023-02-25T06:22:49;12.20;;;1.67;;
72301;SDS011;60235;52.234;5.186;2023-02-25T06:25:15;15.05;;;1.55;;
72301;SDS011;60235;52.234;5.186;2023-02-25T06:27:41;8.98;;;1.48;;
72301;SDS011;60235;52.234;5.186;2023-02-25T06:30:07;13.98;;;1.98;;
72301;SDS011;60235;52.234;5.186;2023-02-25T06:32:33;16.55;;;2.05;;
72301;SDS011;60235;52.234;5.186;2023-02-25T06:34:59;18.00;;;2.33;;
72301;SDS011;60235;52.234;5.186;2023-02-25T06:37:25;16.00;;;2.45;;
72301;SDS011;60235;52.234;5.186;2023-02-25T06:39:52;15.27;;;2.50;;
72301;SDS011;60235;52.234;5.186;2023-02-25T06:42:18;16.25;;;2.70;;
72301;SDS011;60235;52.234;5.186;2023-02-25T06:44:44;15.70;;;1.77;;
72301;SDS011;60235;52.234;5.186;2023-02-25T06:47:10;17.63;;;2.58;;
72301;SDS011;60235;52.234;5.186;2023-02-25T06:49:36;14.55;;;2.00;;
72301;SDS011;60235;52.234;5.186;2023-02-25T06:52:02;13.35;;;1.70;;
72301;SDS011;60235;52.234;5.186;2023-02-25T06:54:28;10.73;;;1.45;;
72301;SDS011;60235;52.234;5.186;2023-02-25T06:56:54;10.52;;;1.48;;
72301;SDS011;60235;52.234;5.186;2023-02-25T06:59:20;14.52;;;1.55;;
72301;SDS011;60235;52.234;5.186;2023-02-25T07:01:46;13.50;;;1.65;;
72301;SDS011;60235;52.234;5.186;2023-02-25T07:04:15;16.95;;;2.15;;
72301;SDS011;60235;52.234;5.186;2023-02-25T07:06:42;12.40;;;1.60;;
72301;SDS011;60235;52.234;5.186;2023-02-25T07:09:08;10.25;;;1.60;;
72301;SDS011;60235;52.234;5.186;2023-02-25T07:11:34;14.32;;;2.03;;
72301;SDS011;60235;52.234;5.186;2023-02-25T07:14:01;15.73;;;1.92;;
72301;SDS011;60235;52.234;5.186;2023-02-25T07:16:27;13.15;;;1.85;;
72301;SDS011;60235;52.234;5.186;2023-02-25T07:18:54;17.73;;;2.13;;
72301;SDS011;60235;52.234;5.186;2023-02-25T07:21:20;24.50;;;2.22;;
72301;SDS011;60235;52.234;5.186;2023-02-25T07:23:47;18.27;;;2.47;;
72301;SDS011;60235;52.234;5.186;2023-02-25T07:26:13;16.00;;;2.25;;
72301;SDS011;60235;52.234;5.186;2023-02-25T07:28:40;12.05;;;2.17;;
72301;SDS011;60235;52.234;5.186;2023-02-25T07:31:10;15.23;;;1.95;;
72301;SDS011;60235;52.234;5.186;2023-02-25T07:33:36;19.85;;;2.22;;
72301;SDS011;60235;52.234;5.186;2023-02-25T07:36:02;18.95;;;2.03;;
72301;SDS011;60235;52.234;5.186;2023-02-25T07:38:29;12.20;;;1.65;;
72301;SDS011;60235;52.234;5.186;2023-02-25T07:40:55;14.60;;;1.90;;
72301;SDS011;60235;52.234;5.186;2023-02-25T07:43:21;19.50;;;1.95;;
72301;SDS011;60235;52.234;5.186;2023-02-25T07:45:50;14.05;;;1.77;;
72301;SDS011;60235;52.234;5.186;2023-02-25T07:48:16;16.52;;;1.98;;
72301;SDS011;60235;52.234;5.186;2023-02-25T07:50:42;24.73;;;2.67;;
72301;SDS011;60235;52.234;5.186;2023-02-25T07:53:08;12.23;;;1.70;;
72301;SDS011;60235;52.234;5.186;2023-02-25T07:55:34;12.35;;;2.15;;
72301;SDS011;60235;52.234;5.186;2023-02-25T07:58:00;7.93;;;1.20;;
72301;SDS011;60235;52.234;5.186;2023-02-25T08:00:26;11.63;;;1.23;;
72301;SDS011;60235;52.234;5.186;2023-02-25T08:02:52;14.07;;;1.52;;
72301;SDS011;60235;52.234;5.186;2023-02-25T08:05:19;7.82;;;1.27;;
72301;SDS011;60235;52.234;5.186;2023-02-25T08:07:45;10.25;;;1.83;;
72301;SDS011;60235;52.234;5.186;2023-02-25T08:10:11;9.98;;;1.75;;
72301;SDS011;60235;52.234;5.186;2023-02-25T08:12:37;10.80;;;1.50;;
72301;SDS011;60235;52.234;5.186;2023-02-25T08:15:03;8.52;;;1.23;;
72301;SDS011;60235;52.234;5.186;2023-02-25T08:17:32;13.98;;;1.25;;
72301;SDS011;60235;52.234;5.186;2023-02-25T08:19:58;12.10;;;1.55;;
72301;SDS011;60235;52.234;5.186;2023-02-25T08:22:24;23.48;;;2.35;;
72301;SDS011;60235;52.234;5.186;2023-02-25T08:24:50;12.50;;;1.88;;
72301;SDS011;60235;52.234;5.186;2023-02-25T08:27:16;11.15;;;2.38;;
72301;SDS011;60235;52.234;5.186;2023-02-25T08:29:42;14.05;;;1.98;;
72301;SDS011;60235;52.234;5.186;2023-02-25T08:32:08;15.13;;;1.65;;
72301;SDS011;60235;52.234;5.186;2023-02-25T08:34:34;12.55;;;2.10;;
72301;SDS011;60235;52.234;5.186;2023-02-25T08:37:00;9.63;;;1.50;;
72301;SDS011;60235;52.234;5.186;2023-02-25T08:39:26;10.52;;;1.90;;
72301;SDS011;60235;52.234;5.186;2023-02-25T08:41:53;8.85;;;1.60;;
72301;SDS011;60235;52.234;5.186;2023-02-25T08:44:19;10.32;;;1.58;;
72301;SDS011;60235;52.234;5.186;2023-02-25T08:46:45;7.90;;;1.80;;
72301;SDS011;60235;52.234;5.186;2023-02-25T08:49:11;8.35;;;1.00;;
72301;SDS011;60235;52.234;5.186;2023-02-25T08:51:37;12.85;;;1.50;;
72301;SDS011;60235;52.234;5.186;2023-02-25T08:54:10;11.55;;;2.03;;
72301;SDS011;60235;52.234;5.186;2023-02-25T08:56:36;7.80;;;1.00;;
72301;SDS011;60235;52.234;5.186;2023-02-25T08:59:09;9.70;;;1.25;;
72301;SDS011;60235;52.234;5.186;2023-02-25T09:01:35;8.73;;;1.23;;
72301;SDS011;60235;52.234;5.186;2023-02-25T09:04:13;7.65;;;1.10;;
72301;SDS011;60235;52.234;5.186;2023-02-25T09:06:39;7.13;;;1.52;;
72301;SDS011;60235;52.234;5.186;2023-02-25T09:09:05;3.70;;;0.85;;
72301;SDS011;60235;52.234;5.186;2023-02-25T09:11:31;8.20;;;1.02;;
72301;SDS011;60235;52.234;5.186;2023-02-25T09:13:57;9.35;;;1.52;;
72301;SDS011;60235;52.234;5.186;2023-02-25T09:16:23;6.88;;;1.23;;
72301;SDS011;60235;52.234;5.186;2023-02-25T09:18:49;7.30;;;0.88;;
72301;SDS011;60235;52.234;5.186;2023-02-25T09:21:16;4.13;;;0.85;;
72301;SDS011;60235;52.234;5.186;2023-02-25T09:23:42;8.90;;;1.02;;
72301;SDS011;60235;52.234;5.186;2023-02-25T09:26:08;10.65;;;1.50;;
72301;SDS011;60235;52.234;5.186;2023-02-25T09:28:34;7.13;;;1.10;;
72301;SDS011;60235;52.234;5.186;2023-02-25T09:31:01;8.73;;;0.95;;
72301;SDS011;60235;52.234;5.186;2023-02-25T09:33:27;7.50;;;1.13;;
72301;SDS011;60235;52.234;5.186;2023-02-25T09:35:53;8.65;;;1.17;;
72301;SDS011;60235;52.234;5.186;2023-02-25T09:38:20;14.25;;;2.83;;
72301;SDS011;60235;52.234;5.186;2023-02-25T09:40:48;8.35;;;1.10;;
72301;SDS011;60235;52.234;5.186;2023-02-25T09:43:17;7.55;;;0.90;;
72301;SDS011;60235;52.234;5.186;2023-02-25T09:45:45;7.50;;;2.20;;
72301;SDS011;60235;52.234;5.186;2023-02-25T09:48:15;5.78;;;0.80;;
72301;SDS011;60235;52.234;5.186;2023-02-25T09:50:44;5.53;;;0.93;;
72301;SDS011;60235;52.234;5.186;2023-02-25T09:53:16;5.45;;;1.02;;
72301;SDS011;60235;52.234;5.186;2023-02-25T09:55:48;7.90;;;1.33;;
72301;SDS011;60235;52.234;5.186;2023-02-25T10:00:49;3.55;;;0.70;;
72301;SDS011;60235;52.234;5.186;2023-02-25T10:05:54;7.40;;;1.30;;
72301;SDS011;60235;52.234;5.186;2023-02-25T10:11:09;13.50;;;1.48;;
72301;SDS011;60235;52.234;5.186;2023-02-25T10:26:37;5.10;;;1.00;;
72301;SDS011;60235;52.234;5.186;2023-02-25T10:29:05;6.32;;;1.00;;
72301;SDS011;60235;52.234;5.186;2023-02-25T10:31:31;8.00;;;0.98;;
72301;SDS011;60235;52.234;5.186;2023-02-25T10:34:00;7.88;;;1.20;;
72301;SDS011;60235;52.234;5.186;2023-02-25T10:38:53;2.92;;;0.60;;
72301;SDS011;60235;52.234;5.186;2023-02-25T10:41:20;9.27;;;1.10;;
72301;SDS011;60235;52.234;5.186;2023-02-25T10:43:46;10.70;;;1.00;;
72301;SDS011;60235;52.234;5.186;2023-02-25T10:48:40;6.97;;;1.20;;
72301;SDS011;60235;52.234;5.186;2023-02-25T10:51:08;6.03;;;0.95;;
72301;SDS011;60235;52.234;5.186;2023-02-25T10:53:36;7.28;;;0.95;;
72301;SDS011;60235;52.234;5.186;2023-02-25T10:56:02;6.35;;;1.08;;
72301;SDS011;60235;52.234;5.186;2023-02-25T10:58:34;8.75;;;1.02;;
72301;SDS011;60235;52.234;5.186;2023-02-25T11:03:30;3.13;;;0.73;;
72301;SDS011;60235;52.234;5.186;2023-02-25T11:06:19;3.70;;;0.70;;
72301;SDS011;60235;52.234;5.186;2023-02-25T11:08:43;8.43;;;0.95;;
72301;SDS011;60235;52.234;5.186;2023-02-25T11:13:42;6.45;;;1.02;;
72301;SDS011;60235;52.234;5.186;2023-02-25T11:16:11;4.47;;;0.95;;
72301;SDS011;60235;52.234;5.186;2023-02-25T11:18:38;5.05;;;0.70;;
72301;SDS011;60235;52.234;5.186;2023-02-25T11:21:09;6.28;;;0.82;;
72301;SDS011;60235;52.234;5.186;2023-02-25T11:23:46;8.00;;;1.25;;
72301;SDS011;60235;52.234;5.186;2023-02-25T11:26:35;6.97;;;0.98;;
72301;SDS011;60235;52.234;5.186;2023-02-25T11:29:01;9.70;;;1.15;;
72301;SDS011;60235;52.234;5.186;2023-02-25T11:31:32;8.45;;;0.93;;
72301;SDS011;60235;52.234;5.186;2023-02-25T11:33:59;8.05;;;1.08;;
72301;SDS011;60235;52.234;5.186;2023-02-25T11:36:34;7.65;;;1.35;;
72301;SDS011;60235;52.234;5.186;2023-02-25T11:39:20;6.32;;;0.98;;
72301;SDS011;60235;52.234;5.186;2023-02-25T11:41:48;18.23;;;1.50;;
72301;SDS011;60235;52.234;5.186;2023-02-25T11:45:00;8.18;;;1.30;;
72301;SDS011;60235;52.234;5.186;2023-02-25T11:47:22;7.88;;;1.10;;
72301;SDS011;60235;52.234;5.186;2023-02-25T11:52:17;9.38;;;1.02;;
72301;SDS011;60235;52.234;5.186;2023-02-25T11:54:50;14.70;;;1.33;;
72301;SDS011;60235;52.234;5.186;2023-02-25T11:58:00;4.75;;;0.88;;
72301;SDS011;60235;52.234;5.186;2023-02-25T12:07:45;5.07;;;1.08;;
72301;SDS011;60235;52.234;5.186;2023-02-25T12:26:25;12.05;;;1.77;;
72301;SDS011;60235;52.234;5.186;2023-02-25T12:29:03;8.13;;;1.45;;
72301;SDS011;60235;52.234;5.186;2023-02-25T12:54:06;8.93;;;1.33;;
72301;SDS011;60235;52.234;5.186;2023-02-25T12:59:07;9.32;;;1.15;;
72301;SDS011;60235;52.234;5.186;2023-02-25T13:06:41;10.57;;;1.20;;
72301;SDS011;60235;52.234;5.186;2023-02-25T13:11:51;5.45;;;1.00;;
72301;SDS011;60235;52.234;5.186;2023-02-25T13:19:34;9.48;;;0.90;;
72301;SDS011;60235;52.234;5.186;2023-02-25T13:24:51;6.40;;;1.10;;
72301;SDS011;60235;52.234;5.186;2023-02-25T13:30:17;5.28;;;1.00;;
72301;SDS011;60235;52.234;5.186;2023-02-25T13:40:50;7.07;;;1.98;;
72301;SDS011;60235;52.234;5.186;2023-02-25T13:46:09;9.75;;;1.10;;
72301;SDS011;60235;52.234;5.186;2023-02-25T13:48:54;6.75;;;1.17;;
72301;SDS011;60235;52.234;5.186;2023-02-25T14:14:59;5.25;;;1.08;;
72301;SDS011;60235;52.234;5.186;2023-02-25T14:17:32;11.10;;;1.48;;
72301;SDS011;60235;52.234;5.186;2023-02-25T14:20:14;7.22;;;1.40;;
72301;SDS011;60235;52.234;5.186;2023-02-25T14:22:44;6.88;;;1.42;;
72301;SDS011;60235;52.234;5.186;2023-02-25T14:25:15;7.20;;;1.60;;
72301;SDS011;60235;52.234;5.186;2023-02-25T14:30:29;15.43;;;1.70;;
72301;SDS011;60235;52.234;5.186;2023-02-25T14:38:25;9.50;;;1.42;;
72301;SDS011;60235;52.234;5.186;2023-02-25T14:41:40;6.95;;;1.88;;
72301;SDS011;60235;52.234;5.186;2023-02-25T14:43:41;6.88;;;1.40;;
72301;SDS011;60235;52.234;5.186;2023-02-25T14:46:27;8.13;;;1.13;;
72301;SDS011;60235;52.234;5.186;2023-02-25T15:02:37;7.75;;;1.08;;
72301;SDS011;60235;52.234;5.186;2023-02-25T15:12:51;6.15;;;1.15;;
72301;SDS011;60235;52.234;5.186;2023-02-25T15:23:03;8.07;;;0.93;;
72301;SDS011;60235;52.234;5.186;2023-02-25T15:33:39;7.75;;;1.48;;
72301;SDS011;60235;52.234;5.186;2023-02-25T15:38:50;8.30;;;1.40;;
72301;SDS011;60235;52.234;5.186;2023-02-25T15:51:45;4.93;;;0.88;;
72301;SDS011;60235;52.234;5.186;2023-02-25T15:56:59;6.65;;;1.33;;
72301;SDS011;60235;52.234;5.186;2023-02-25T16:07:32;11.48;;;1.45;;
72301;SDS011;60235;52.234;5.186;2023-02-25T16:09:59;7.22;;;1.38;;
72301;SDS011;60235;52.234;5.186;2023-02-25T16:12:28;9.27;;;1.40;;
72301;SDS011;60235;52.234;5.186;2023-02-25T16:14:54;12.23;;;1.75;;
72301;SDS011;60235;52.234;5.186;2023-02-25T16:17:31;11.25;;;1.70;;
72301;SDS011;60235;52.234;5.186;2023-02-25T16:19:59;8.93;;;1.42;;
72301;SDS011;60235;52.234;5.186;2023-02-25T16:22:28;7.97;;;1.50;;
72301;SDS011;60235;52.234;5.186;2023-02-25T16:24:55;8.15;;;1.77;;
72301;SDS011;60235;52.234;5.186;2023-02-25T16:29:53;7.63;;;1.30;;
72301;SDS011;60235;52.234;5.186;2023-02-25T16:34:50;6.68;;;1.42;;
72301;SDS011;60235;52.234;5.186;2023-02-25T16:37:22;8.00;;;1.10;;
72301;SDS011;60235;52.234;5.186;2023-02-25T16:39:51;16.15;;;1.63;;
72301;SDS011;60235;52.234;5.186;2023-02-25T16:42:17;10.73;;;1.60;;
72301;SDS011;60235;52.234;5.186;2023-02-25T16:45:52;8.38;;;1.27;;
72301;SDS011;60235;52.234;5.186;2023-02-25T16:47:40;7.68;;;1.50;;
72301;SDS011;60235;52.234;5.186;2023-02-25T16:50:11;10.48;;;1.50;;
72301;SDS011;60235;52.234;5.186;2023-02-25T16:52:44;7.35;;;1.15;;
72301;SDS011;60235;52.234;5.186;2023-02-25T16:55:15;5.70;;;1.23;;
72301;SDS011;60235;52.234;5.186;2023-02-25T16:57:42;9.10;;;1.10;;
72301;SDS011;60235;52.234;5.186;2023-02-25T17:00:24;3.88;;;0.98;;
72301;SDS011;60235;52.234;5.186;2023-02-25T17:02:51;9.48;;;2.05;;
72301;SDS011;60235;52.234;5.186;2023-02-25T17:05:25;8.27;;;1.90;;
72301;SDS011;60235;52.234;5.186;2023-02-25T17:07:56;8.35;;;1.50;;
72301;SDS011;60235;52.234;5.186;2023-02-25T17:10:35;9.55;;;2.08;;
72301;SDS011;60235;52.234;5.186;2023-02-25T17:13:08;8.20;;;1.50;;
72301;SDS011;60235;52.234;5.186;2023-02-25T17:15:38;9.82;;;1.83;;
72301;SDS011;60235;52.234;5.186;2023-02-25T17:18:06;7.05;;;1.92;;
72301;SDS011;60235;52.234;5.186;2023-02-25T17:20:33;9.65;;;2.70;;
72301;SDS011;60235;52.234;5.186;2023-02-25T17:23:02;7.25;;;2.00;;
72301;SDS011;60235;52.234;5.186;2023-02-25T17:25:31;7.72;;;2.15;;
72301;SDS011;60235;52.234;5.186;2023-02-25T17:28:01;9.25;;;2.47;;
72301;SDS011;60235;52.234;5.186;2023-02-25T17:30:38;7.28;;;1.95;;
72301;SDS011;60235;52.234;5.186;2023-02-25T17:33:05;11.55;;;2.40;;
72301;SDS011;60235;52.234;5.186;2023-02-25T17:35:31;12.13;;;2.45;;
72301;SDS011;60235;52.234;5.186;2023-02-25T17:37:58;12.18;;;1.98;;
72301;SDS011;60235;52.234;5.186;2023-02-25T17:40:25;11.57;;;2.35;;
72301;SDS011;60235;52.234;5.186;2023-02-25T17:43:13;10.30;;;1.52;;
72301;SDS011;60235;52.234;5.186;2023-02-25T17:48:04;7.93;;;2.10;;
72301;SDS011;60235;52.234;5.186;2023-02-25T17:50:31;9.70;;;2.10;;
72301;SDS011;60235;52.234;5.186;2023-02-25T17:52:57;10.10;;;2.42;;
72301;SDS011;60235;52.234;5.186;2023-02-25T17:55:25;7.15;;;1.70;;
72301;SDS011;60235;52.234;5.186;2023-02-25T17:57:52;7.75;;;1.73;;
72301;SDS011;60235;52.234;5.186;2023-02-25T18:00:22;11.35;;;1.73;;
72301;SDS011;60235;52.234;5.186;2023-02-25T18:02:48;7.85;;;1.70;;
72301;SDS011;60235;52.234;5.186;2023-02-25T18:05:31;8.88;;;1.90;;
72301;SDS011;60235;52.234;5.186;2023-02-25T18:08:01;10.10;;;2.50;;
72301;SDS011;60235;52.234;5.186;2023-02-25T18:12:57;11.55;;;2.03;;
72301;SDS011;60235;52.234;5.186;2023-02-25T18:15:25;11.43;;;2.28;;
72301;SDS011;60235;52.234;5.186;2023-02-25T18:17:55;10.07;;;3.13;;
72301;SDS011;60235;52.234;5.186;2023-02-25T18:22:51;10.60;;;3.15;;
72301;SDS011;60235;52.234;5.186;2023-02-25T18:25:30;11.93;;;2.35;;
72301;SDS011;60235;52.234;5.186;2023-02-25T18:27:56;12.10;;;3.17;;
72301;SDS011;60235;52.234;5.186;2023-02-25T18:30:23;9.68;;;2.53;;
72301;SDS011;60235;52.234;5.186;2023-02-25T18:32:50;12.27;;;2.30;;
72301;SDS011;60235;52.234;5.186;2023-02-25T18:35:17;11.52;;;2.63;;
72301;SDS011;60235;52.234;5.186;2023-02-25T18:37:44;11.80;;;2.83;;
72301;SDS011;60235;52.234;5.186;2023-02-25T18:40:30;9.85;;;2.78;;
72301;SDS011;60235;52.234;5.186;2023-02-25T18:42:57;14.88;;;3.05;;
72301;SDS011;60235;52.234;5.186;2023-02-25T18:45:23;8.52;;;2.60;;
72301;SDS011;60235;52.234;5.186;2023-02-25T18:47:50;10.50;;;2.15;;
72301;SDS011;60235;52.234;5.186;2023-02-25T18:50:16;12.93;;;2.53;;
72301;SDS011;60235;52.234;5.186;2023-02-25T18:52:42;7.60;;;1.80;;
72301;SDS011;60235;52.234;5.186;2023-02-25T18:55:12;11.07;;;2.15;;
72301;SDS011;60235;52.234;5.186;2023-02-25T18:57:39;10.60;;;2.40;;